sensor_id;sensor_type;location;lat;lon;timestamp;P1;durP1;ratioP1;P2;durP2;ratioP2
4311;SDS011;2169;49.086;9.284;2023-06-22T00:02:27;5.63;;;3.03;;
4311;SDS011;2169;49.086;9.284;2023-06-22T00:04:54;4.97;;;4.47;;
4311;SDS011;2169;49.086;9.284;2023-06-22T00:07:21;5.40;;;3.40;;
4311;SDS011;2169;49.086;9.284;2023-06-22T00:09:47;3.50;;;3.20;;
4311;SDS011;2169;49.086;9.284;2023-06-22T00:12:14;5.33;;;3.30;;
4311;SDS011;2169;49.086;9.284;2023-06-22T00:14:41;4.93;;;4.40;;
4311;SDS011;2169;49.086;9.284;2023-06-22T00:17:07;3.87;;;3.23;;
4311;SDS011;2169;49.086;9.284;2023-06-22T00:19:35;4.37;;;3.00;;
4311;SDS011;2169;49.086;9.284;2023-06-22T00:22:05;10.03;;;3.60;;
4311;SDS011;2169;49.086;9.284;2023-06-22T00:24:32;3.40;;;3.10;;
4311;SDS011;2169;49.086;9.284;2023-06-22T00:26:58;7.13;;;3.60;;
4311;SDS011;2169;49.086;9.284;2023-06-22T00:29:25;3.00;;;2.53;;
4311;SDS011;2169;49.086;9.284;2023-06-22T00:31:52;3.10;;;2.43;;
4311;SDS011;2169;49.086;9.284;2023-06-22T00:34:19;4.03;;;2.90;;
4311;SDS011;2169;49.086;9.284;2023-06-22T00:36:47;4.87;;;4.13;;
4311;SDS011;2169;49.086;9.284;2023-06-22T00:39:13;7.73;;;4.10;;
4311;SDS011;2169;49.086;9.284;2023-06-22T00:41:40;4.37;;;3.47;;
4311;SDS011;2169;49.086;9.284;2023-06-22T00:44:07;6.50;;;3.17;;
4311;SDS011;2169;49.086;9.284;2023-06-22T00:46:34;6.73;;;4.90;;
4311;SDS011;2169;49.086;9.284;2023-06-22T00:49:00;3.50;;;3.03;;
4311;SDS011;2169;49.086;9.284;2023-06-22T00:51:30;4.77;;;4.40;;
4311;SDS011;2169;49.086;9.284;2023-06-22T00:53:58;10.00;;;3.30;;
4311;SDS011;2169;49.086;9.284;2023-06-22T00:56:25;4.10;;;2.97;;
4311;SDS011;2169;49.086;9.284;2023-06-22T00:58:55;4.90;;;3.47;;
4311;SDS011;2169;49.086;9.284;2023-06-22T01:01:22;3.63;;;3.30;;
4311;SDS011;2169;49.086;9.284;2023-06-22T01:03:49;5.90;;;3.53;;
4311;SDS011;2169;49.086;9.284;2023-06-22T01:06:19;5.47;;;3.80;;
4311;SDS011;2169;49.086;9.284;2023-06-22T01:08:53;20.77;;;4.10;;
4311;SDS011;2169;49.086;9.284;2023-06-22T01:11:31;3.50;;;3.20;;
4311;SDS011;2169;49.086;9.284;2023-06-22T01:14:04;3.93;;;3.63;;
4311;SDS011;2169;49.086;9.284;2023-06-22T01:16:35;5.43;;;4.87;;
4311;SDS011;2169;49.086;9.284;2023-06-22T01:19:07;7.23;;;3.40;;
4311;SDS011;2169;49.086;9.284;2023-06-22T01:21:52;10.07;;;3.20;;
4311;SDS011;2169;49.086;9.284;2023-06-22T01:24:24;20.10;;;4.43;;
4311;SDS011;2169;49.086;9.284;2023-06-22T01:26:58;3.53;;;3.03;;
4311;SDS011;2169;49.086;9.284;2023-06-22T01:29:32;5.87;;;4.20;;
4311;SDS011;2169;49.086;9.284;2023-06-22T01:32:01;6.17;;;3.67;;
4311;SDS011;2169;49.086;9.284;2023-06-22T01:34:30;8.00;;;4.47;;
4311;SDS011;2169;49.086;9.284;2023-06-22T01:36:58;7.33;;;6.63;;
4311;SDS011;2169;49.086;9.284;2023-06-22T01:39:26;4.20;;;3.23;;
4311;SDS011;2169;49.086;9.284;2023-06-22T01:41:54;4.00;;;3.40;;
4311;SDS011;2169;49.086;9.284;2023-06-22T01:44:21;4.53;;;3.67;;
4311;SDS011;2169;49.086;9.284;2023-06-22T01:46:50;6.03;;;3.67;;
4311;SDS011;2169;49.086;9.284;2023-06-22T01:49:18;6.30;;;3.80;;
4311;SDS011;2169;49.086;9.284;2023-06-22T01:51:45;5.47;;;4.93;;
4311;SDS011;2169;49.086;9.284;2023-06-22T01:54:12;9.03;;;4.90;;
4311;SDS011;2169;49.086;9.284;2023-06-22T01:56:39;8.57;;;4.07;;
4311;SDS011;2169;49.086;9.284;2023-06-22T01:59:07;9.73;;;5.23;;
4311;SDS011;2169;49.086;9.284;2023-06-22T02:01:41;4.40;;;3.67;;
4311;SDS011;2169;49.086;9.284;2023-06-22T02:04:11;22.07;;;4.60;;
4311;SDS011;2169;49.086;9.284;2023-06-22T02:06:45;3.60;;;2.80;;
4311;SDS011;2169;49.086;9.284;2023-06-22T02:09:15;10.00;;;5.40;;
4311;SDS011;2169;49.086;9.284;2023-06-22T02:11:45;10.33;;;3.77;;
4311;SDS011;2169;49.086;9.284;2023-06-22T02:14:13;5.70;;;4.43;;
4311;SDS011;2169;49.086;9.284;2023-06-22T02:16:41;7.90;;;6.30;;
4311;SDS011;2169;49.086;9.284;2023-06-22T02:19:08;7.03;;;5.20;;
4311;SDS011;2169;49.086;9.284;2023-06-22T02:21:37;7.13;;;4.17;;
4311;SDS011;2169;49.086;9.284;2023-06-22T02:24:04;12.80;;;4.90;;
4311;SDS011;2169;49.086;9.284;2023-06-22T02:26:31;6.70;;;4.77;;
4311;SDS011;2169;49.086;9.284;2023-06-22T02:28:59;5.70;;;5.03;;
4311;SDS011;2169;49.086;9.284;2023-06-22T02:31:26;5.73;;;5.13;;
4311;SDS011;2169;49.086;9.284;2023-06-22T02:33:55;8.17;;;4.50;;
4311;SDS011;2169;49.086;9.284;2023-06-22T02:36:22;6.43;;;4.07;;
4311;SDS011;2169;49.086;9.284;2023-06-22T02:38:51;5.50;;;4.97;;
4311;SDS011;2169;49.086;9.284;2023-06-22T02:41:19;6.03;;;4.80;;
4311;SDS011;2169;49.086;9.284;2023-06-22T02:43:46;5.83;;;4.70;;
4311;SDS011;2169;49.086;9.284;2023-06-22T02:46:13;4.50;;;4.10;;
4311;SDS011;2169;49.086;9.284;2023-06-22T02:48:40;8.23;;;4.67;;
4311;SDS011;2169;49.086;9.284;2023-06-22T02:51:07;5.50;;;5.00;;
4311;SDS011;2169;49.086;9.284;2023-06-22T02:53:34;7.10;;;4.77;;
4311;SDS011;2169;49.086;9.284;2023-06-22T02:56:02;16.73;;;4.97;;
4311;SDS011;2169;49.086;9.284;2023-06-22T02:58:30;8.27;;;5.97;;
4311;SDS011;2169;49.086;9.284;2023-06-22T03:00:58;25.30;;;7.70;;
4311;SDS011;2169;49.086;9.284;2023-06-22T03:03:29;14.87;;;5.60;;
4311;SDS011;2169;49.086;9.284;2023-06-22T03:05:56;7.67;;;6.30;;
4311;SDS011;2169;49.086;9.284;2023-06-22T03:08:23;13.47;;;6.03;;
4311;SDS011;2169;49.086;9.284;2023-06-22T03:10:49;12.33;;;5.80;;
4311;SDS011;2169;49.086;9.284;2023-06-22T03:13:17;13.33;;;6.30;;
4311;SDS011;2169;49.086;9.284;2023-06-22T03:15:44;7.57;;;6.03;;
4311;SDS011;2169;49.086;9.284;2023-06-22T03:18:11;7.33;;;6.53;;
4311;SDS011;2169;49.086;9.284;2023-06-22T03:20:38;8.43;;;6.27;;
4311;SDS011;2169;49.086;9.284;2023-06-22T03:23:04;10.23;;;5.30;;
4311;SDS011;2169;49.086;9.284;2023-06-22T03:25:31;11.43;;;6.17;;
4311;SDS011;2169;49.086;9.284;2023-06-22T03:27:58;10.00;;;6.30;;
4311;SDS011;2169;49.086;9.284;2023-06-22T03:30:27;14.73;;;6.10;;
4311;SDS011;2169;49.086;9.284;2023-06-22T03:32:53;7.13;;;5.77;;
4311;SDS011;2169;49.086;9.284;2023-06-22T03:35:20;7.27;;;5.80;;
4311;SDS011;2169;49.086;9.284;2023-06-22T03:37:47;10.37;;;6.27;;
4311;SDS011;2169;49.086;9.284;2023-06-22T03:40:14;7.20;;;4.70;;
4311;SDS011;2169;49.086;9.284;2023-06-22T03:42:41;7.77;;;5.73;;
4311;SDS011;2169;49.086;9.284;2023-06-22T03:45:08;7.10;;;5.60;;
4311;SDS011;2169;49.086;9.284;2023-06-22T03:47:37;9.43;;;5.90;;
4311;SDS011;2169;49.086;9.284;2023-06-22T03:50:04;9.43;;;6.03;;
4311;SDS011;2169;49.086;9.284;2023-06-22T03:52:32;10.33;;;5.77;;
4311;SDS011;2169;49.086;9.284;2023-06-22T03:54:58;7.67;;;5.70;;
4311;SDS011;2169;49.086;9.284;2023-06-22T03:57:25;6.30;;;4.10;;
4311;SDS011;2169;49.086;9.284;2023-06-22T03:59:53;7.83;;;4.93;;
4311;SDS011;2169;49.086;9.284;2023-06-22T04:02:22;5.97;;;4.60;;
4311;SDS011;2169;49.086;9.284;2023-06-22T04:04:50;4.93;;;4.37;;
4311;SDS011;2169;49.086;9.284;2023-06-22T04:07:17;11.57;;;5.10;;
4311;SDS011;2169;49.086;9.284;2023-06-22T04:09:43;5.33;;;4.03;;
4311;SDS011;2169;49.086;9.284;2023-06-22T04:12:10;8.40;;;5.10;;
4311;SDS011;2169;49.086;9.284;2023-06-22T04:14:37;10.97;;;6.10;;
4311;SDS011;2169;49.086;9.284;2023-06-22T04:17:04;8.27;;;5.97;;
4311;SDS011;2169;49.086;9.284;2023-06-22T04:19:31;6.00;;;5.40;;
4311;SDS011;2169;49.086;9.284;2023-06-22T04:21:59;12.90;;;6.73;;
4311;SDS011;2169;49.086;9.284;2023-06-22T04:24:25;10.03;;;5.97;;
4311;SDS011;2169;49.086;9.284;2023-06-22T04:26:52;8.20;;;4.90;;
4311;SDS011;2169;49.086;9.284;2023-06-22T04:29:19;13.83;;;6.70;;
4311;SDS011;2169;49.086;9.284;2023-06-22T04:31:53;5.57;;;4.87;;
4311;SDS011;2169;49.086;9.284;2023-06-22T04:34:22;7.67;;;5.50;;
4311;SDS011;2169;49.086;9.284;2023-06-22T04:36:51;9.53;;;6.83;;
4311;SDS011;2169;49.086;9.284;2023-06-22T04:39:19;15.30;;;5.80;;
4311;SDS011;2169;49.086;9.284;2023-06-22T04:41:46;13.10;;;6.33;;
4311;SDS011;2169;49.086;9.284;2023-06-22T04:44:14;14.50;;;8.20;;
4311;SDS011;2169;49.086;9.284;2023-06-22T04:46:49;8.43;;;5.23;;
4311;SDS011;2169;49.086;9.284;2023-06-22T04:49:19;6.93;;;5.40;;
4311;SDS011;2169;49.086;9.284;2023-06-22T04:51:46;11.77;;;7.13;;
4311;SDS011;2169;49.086;9.284;2023-06-22T04:54:12;6.50;;;5.40;;
4311;SDS011;2169;49.086;9.284;2023-06-22T04:56:40;9.10;;;6.50;;
4311;SDS011;2169;49.086;9.284;2023-06-22T04:59:07;7.33;;;6.20;;
4311;SDS011;2169;49.086;9.284;2023-06-22T05:01:38;7.57;;;4.77;;
4311;SDS011;2169;49.086;9.284;2023-06-22T05:04:04;7.13;;;5.43;;
4311;SDS011;2169;49.086;9.284;2023-06-22T05:06:31;9.73;;;6.37;;
4311;SDS011;2169;49.086;9.284;2023-06-22T05:08:58;6.77;;;6.03;;
4311;SDS011;2169;49.086;9.284;2023-06-22T05:11:25;6.47;;;5.20;;
4311;SDS011;2169;49.086;9.284;2023-06-22T05:13:53;9.93;;;5.93;;
4311;SDS011;2169;49.086;9.284;2023-06-22T05:16:21;10.80;;;4.70;;
4311;SDS011;2169;49.086;9.284;2023-06-22T05:18:50;11.40;;;7.00;;
4311;SDS011;2169;49.086;9.284;2023-06-22T05:21:20;7.50;;;4.83;;
4311;SDS011;2169;49.086;9.284;2023-06-22T05:23:48;5.37;;;4.87;;
4311;SDS011;2169;49.086;9.284;2023-06-22T05:26:15;5.50;;;5.07;;
4311;SDS011;2169;49.086;9.284;2023-06-22T05:28:41;11.70;;;6.60;;
4311;SDS011;2169;49.086;9.284;2023-06-22T05:31:12;6.90;;;5.40;;
4311;SDS011;2169;49.086;9.284;2023-06-22T05:33:39;6.80;;;4.50;;
4311;SDS011;2169;49.086;9.284;2023-06-22T05:36:06;4.57;;;3.90;;
4311;SDS011;2169;49.086;9.284;2023-06-22T05:38:33;4.83;;;4.13;;
4311;SDS011;2169;49.086;9.284;2023-06-22T05:41:00;4.03;;;3.63;;
4311;SDS011;2169;49.086;9.284;2023-06-22T05:43:26;6.93;;;3.70;;
4311;SDS011;2169;49.086;9.284;2023-06-22T05:45:53;5.57;;;4.97;;
4311;SDS011;2169;49.086;9.284;2023-06-22T05:48:21;8.60;;;5.03;;
4311;SDS011;2169;49.086;9.284;2023-06-22T05:50:49;4.67;;;4.30;;
4311;SDS011;2169;49.086;9.284;2023-06-22T05:53:15;6.40;;;4.13;;
4311;SDS011;2169;49.086;9.284;2023-06-22T05:55:42;3.17;;;2.90;;
4311;SDS011;2169;49.086;9.284;2023-06-22T05:58:09;4.60;;;3.90;;
4311;SDS011;2169;49.086;9.284;2023-06-22T06:00:36;5.63;;;3.10;;
4311;SDS011;2169;49.086;9.284;2023-06-22T06:03:03;8.30;;;5.00;;
4311;SDS011;2169;49.086;9.284;2023-06-22T06:05:31;6.43;;;4.00;;
4311;SDS011;2169;49.086;9.284;2023-06-22T06:07:58;9.93;;;3.10;;
4311;SDS011;2169;49.086;9.284;2023-06-22T06:10:25;8.13;;;3.67;;
4311;SDS011;2169;49.086;9.284;2023-06-22T06:12:54;5.47;;;3.40;;
4311;SDS011;2169;49.086;9.284;2023-06-22T06:15:21;5.97;;;2.87;;
4311;SDS011;2169;49.086;9.284;2023-06-22T06:17:48;14.87;;;5.00;;
4311;SDS011;2169;49.086;9.284;2023-06-22T06:20:15;8.63;;;3.07;;
4311;SDS011;2169;49.086;9.284;2023-06-22T06:22:45;6.63;;;4.20;;
4311;SDS011;2169;49.086;9.284;2023-06-22T06:25:12;7.10;;;3.37;;
4311;SDS011;2169;49.086;9.284;2023-06-22T06:27:41;9.40;;;2.90;;
4311;SDS011;2169;49.086;9.284;2023-06-22T06:30:08;4.50;;;3.43;;
4311;SDS011;2169;49.086;9.284;2023-06-22T06:32:35;4.37;;;3.30;;
4311;SDS011;2169;49.086;9.284;2023-06-22T06:35:03;13.23;;;3.57;;
4311;SDS011;2169;49.086;9.284;2023-06-22T06:37:31;4.07;;;2.77;;
4311;SDS011;2169;49.086;9.284;2023-06-22T06:39:59;5.83;;;2.77;;
4311;SDS011;2169;49.086;9.284;2023-06-22T06:42:25;4.00;;;2.80;;
4311;SDS011;2169;49.086;9.284;2023-06-22T06:44:52;7.07;;;2.70;;
4311;SDS011;2169;49.086;9.284;2023-06-22T06:47:20;4.90;;;3.73;;
4311;SDS011;2169;49.086;9.284;2023-06-22T06:49:47;6.13;;;3.57;;
4311;SDS011;2169;49.086;9.284;2023-06-22T06:52:13;3.90;;;2.80;;
4311;SDS011;2169;49.086;9.284;2023-06-22T06:54:40;4.67;;;3.37;;
4311;SDS011;2169;49.086;9.284;2023-06-22T06:57:09;5.27;;;3.37;;
4311;SDS011;2169;49.086;9.284;2023-06-22T06:59:38;8.17;;;3.70;;
4311;SDS011;2169;49.086;9.284;2023-06-22T07:02:05;3.20;;;2.90;;
4311;SDS011;2169;49.086;9.284;2023-06-22T07:04:31;7.03;;;3.30;;
4311;SDS011;2169;49.086;9.284;2023-06-22T07:06:58;3.57;;;3.27;;
4311;SDS011;2169;49.086;9.284;2023-06-22T07:09:27;9.73;;;2.90;;
4311;SDS011;2169;49.086;9.284;2023-06-22T07:11:54;6.90;;;3.90;;
4311;SDS011;2169;49.086;9.284;2023-06-22T07:14:22;2.70;;;2.23;;
4311;SDS011;2169;49.086;9.284;2023-06-22T07:16:49;4.93;;;2.60;;
4311;SDS011;2169;49.086;9.284;2023-06-22T07:19:16;3.33;;;1.90;;
4311;SDS011;2169;49.086;9.284;2023-06-22T07:21:49;10.00;;;3.17;;
4311;SDS011;2169;49.086;9.284;2023-06-22T07:24:16;8.13;;;3.07;;
4311;SDS011;2169;49.086;9.284;2023-06-22T07:26:44;5.80;;;3.33;;
4311;SDS011;2169;49.086;9.284;2023-06-22T07:29:11;2.40;;;2.00;;
4311;SDS011;2169;49.086;9.284;2023-06-22T07:31:39;6.13;;;3.40;;
4311;SDS011;2169;49.086;9.284;2023-06-22T07:34:06;6.93;;;2.60;;
4311;SDS011;2169;49.086;9.284;2023-06-22T07:36:33;7.33;;;3.40;;
4311;SDS011;2169;49.086;9.284;2023-06-22T07:39:00;3.20;;;2.37;;
4311;SDS011;2169;49.086;9.284;2023-06-22T07:41:28;5.37;;;2.43;;
4311;SDS011;2169;49.086;9.284;2023-06-22T07:43:55;6.97;;;2.93;;
4311;SDS011;2169;49.086;9.284;2023-06-22T07:46:21;5.00;;;3.60;;
4311;SDS011;2169;49.086;9.284;2023-06-22T07:48:50;4.00;;;2.40;;
4311;SDS011;2169;49.086;9.284;2023-06-22T07:51:16;3.70;;;2.03;;
4311;SDS011;2169;49.086;9.284;2023-06-22T07:53:43;3.33;;;2.57;;
4311;SDS011;2169;49.086;9.284;2023-06-22T07:56:10;3.43;;;2.50;;
4311;SDS011;2169;49.086;9.284;2023-06-22T07:58:37;8.67;;;2.80;;
4311;SDS011;2169;49.086;9.284;2023-06-22T08:01:04;6.20;;;3.17;;
4311;SDS011;2169;49.086;9.284;2023-06-22T08:03:32;2.10;;;1.90;;
4311;SDS011;2169;49.086;9.284;2023-06-22T08:06:00;6.43;;;2.60;;
4311;SDS011;2169;49.086;9.284;2023-06-22T08:08:27;3.00;;;2.20;;
4311;SDS011;2169;49.086;9.284;2023-06-22T08:10:53;5.67;;;2.70;;
4311;SDS011;2169;49.086;9.284;2023-06-22T08:13:20;4.10;;;2.67;;
4311;SDS011;2169;49.086;9.284;2023-06-22T08:15:47;6.43;;;3.40;;
4311;SDS011;2169;49.086;9.284;2023-06-22T08:18:14;5.13;;;2.37;;
4311;SDS011;2169;49.086;9.284;2023-06-22T08:20:41;1.90;;;1.80;;
4311;SDS011;2169;49.086;9.284;2023-06-22T08:23:09;3.40;;;3.10;;
4311;SDS011;2169;49.086;9.284;2023-06-22T08:25:36;2.20;;;1.90;;
4311;SDS011;2169;49.086;9.284;2023-06-22T08:28:03;4.30;;;2.07;;
4311;SDS011;2169;49.086;9.284;2023-06-22T08:30:30;6.07;;;2.60;;
4311;SDS011;2169;49.086;9.284;2023-06-22T08:32:57;4.57;;;2.63;;
4311;SDS011;2169;49.086;9.284;2023-06-22T08:35:24;3.20;;;2.90;;
4311;SDS011;2169;49.086;9.284;2023-06-22T08:37:51;2.53;;;2.33;;
4311;SDS011;2169;49.086;9.284;2023-06-22T08:40:21;6.17;;;2.20;;
4311;SDS011;2169;49.086;9.284;2023-06-22T08:42:49;5.20;;;2.47;;
4311;SDS011;2169;49.086;9.284;2023-06-22T08:45:16;3.53;;;2.20;;
4311;SDS011;2169;49.086;9.284;2023-06-22T08:47:43;5.73;;;2.80;;
4311;SDS011;2169;49.086;9.284;2023-06-22T08:50:10;3.13;;;2.33;;
4311;SDS011;2169;49.086;9.284;2023-06-22T08:52:38;5.43;;;2.90;;
4311;SDS011;2169;49.086;9.284;2023-06-22T08:55:07;7.50;;;2.10;;
4311;SDS011;2169;49.086;9.284;2023-06-22T08:57:36;5.17;;;2.10;;
4311;SDS011;2169;49.086;9.284;2023-06-22T09:00:04;3.13;;;2.73;;
4311;SDS011;2169;49.086;9.284;2023-06-22T09:02:40;5.83;;;3.03;;
4311;SDS011;2169;49.086;9.284;2023-06-22T09:05:07;2.13;;;1.80;;
4311;SDS011;2169;49.086;9.284;2023-06-22T09:07:34;4.40;;;3.27;;
4311;SDS011;2169;49.086;9.284;2023-06-22T09:10:01;16.13;;;2.27;;
4311;SDS011;2169;49.086;9.284;2023-06-22T09:12:29;4.80;;;2.07;;
4311;SDS011;2169;49.086;9.284;2023-06-22T09:14:59;3.33;;;2.30;;
4311;SDS011;2169;49.086;9.284;2023-06-22T09:17:26;11.20;;;4.33;;
4311;SDS011;2169;49.086;9.284;2023-06-22T09:19:53;5.93;;;2.77;;
4311;SDS011;2169;49.086;9.284;2023-06-22T09:22:20;3.37;;;2.80;;
4311;SDS011;2169;49.086;9.284;2023-06-22T09:24:47;4.10;;;3.70;;
4311;SDS011;2169;49.086;9.284;2023-06-22T09:27:14;3.20;;;2.67;;
4311;SDS011;2169;49.086;9.284;2023-06-22T09:29:40;7.00;;;2.50;;
4311;SDS011;2169;49.086;9.284;2023-06-22T09:32:09;3.93;;;3.20;;
4311;SDS011;2169;49.086;9.284;2023-06-22T09:34:35;5.13;;;3.40;;
4311;SDS011;2169;49.086;9.284;2023-06-22T09:37:02;7.57;;;3.33;;
4311;SDS011;2169;49.086;9.284;2023-06-22T09:39:29;5.00;;;2.20;;
4311;SDS011;2169;49.086;9.284;2023-06-22T09:41:57;6.57;;;4.07;;
4311;SDS011;2169;49.086;9.284;2023-06-22T09:44:24;4.57;;;3.00;;
4311;SDS011;2169;49.086;9.284;2023-06-22T09:46:51;6.47;;;2.80;;
4311;SDS011;2169;49.086;9.284;2023-06-22T09:49:19;2.90;;;2.50;;
4311;SDS011;2169;49.086;9.284;2023-06-22T09:51:45;4.40;;;4.10;;
4311;SDS011;2169;49.086;9.284;2023-06-22T09:54:12;5.00;;;3.07;;
4311;SDS011;2169;49.086;9.284;2023-06-22T09:56:39;4.00;;;2.57;;
4311;SDS011;2169;49.086;9.284;2023-06-22T09:59:06;5.63;;;2.63;;
4311;SDS011;2169;49.086;9.284;2023-06-22T10:01:32;5.93;;;3.77;;
4311;SDS011;2169;49.086;9.284;2023-06-22T10:03:59;7.07;;;3.27;;
4311;SDS011;2169;49.086;9.284;2023-06-22T10:06:27;3.07;;;2.77;;
4311;SDS011;2169;49.086;9.284;2023-06-22T10:08:54;3.10;;;2.90;;
4311;SDS011;2169;49.086;9.284;2023-06-22T10:11:21;2.97;;;2.47;;
4311;SDS011;2169;49.086;9.284;2023-06-22T10:13:52;6.20;;;2.30;;
4311;SDS011;2169;49.086;9.284;2023-06-22T10:16:18;3.27;;;2.37;;
4311;SDS011;2169;49.086;9.284;2023-06-22T10:18:45;6.63;;;2.90;;
4311;SDS011;2169;49.086;9.284;2023-06-22T10:21:12;2.23;;;1.83;;
4311;SDS011;2169;49.086;9.284;2023-06-22T10:23:40;5.97;;;3.33;;
4311;SDS011;2169;49.086;9.284;2023-06-22T10:26:07;6.23;;;2.80;;
4311;SDS011;2169;49.086;9.284;2023-06-22T10:28:34;4.43;;;3.00;;
4311;SDS011;2169;49.086;9.284;2023-06-22T10:31:00;3.50;;;2.87;;
4311;SDS011;2169;49.086;9.284;2023-06-22T10:33:27;9.30;;;2.70;;
4311;SDS011;2169;49.086;9.284;2023-06-22T10:35:54;4.73;;;2.37;;
4311;SDS011;2169;49.086;9.284;2023-06-22T10:38:21;7.23;;;2.77;;
4311;SDS011;2169;49.086;9.284;2023-06-22T10:40:49;4.10;;;2.70;;
4311;SDS011;2169;49.086;9.284;2023-06-22T10:43:16;4.07;;;3.10;;
4311;SDS011;2169;49.086;9.284;2023-06-22T10:45:42;4.67;;;2.93;;
4311;SDS011;2169;49.086;9.284;2023-06-22T10:48:09;3.07;;;1.70;;
4311;SDS011;2169;49.086;9.284;2023-06-22T10:50:36;2.67;;;2.47;;
4311;SDS011;2169;49.086;9.284;2023-06-22T10:53:03;4.30;;;2.40;;
4311;SDS011;2169;49.086;9.284;2023-06-22T10:55:29;7.90;;;3.03;;
4311;SDS011;2169;49.086;9.284;2023-06-22T10:57:57;6.40;;;4.23;;
4311;SDS011;2169;49.086;9.284;2023-06-22T11:00:24;3.00;;;1.83;;
4311;SDS011;2169;49.086;9.284;2023-06-22T11:02:51;3.97;;;3.20;;
4311;SDS011;2169;49.086;9.284;2023-06-22T11:05:18;3.70;;;2.43;;
4311;SDS011;2169;49.086;9.284;2023-06-22T11:07:44;11.13;;;4.20;;
4311;SDS011;2169;49.086;9.284;2023-06-22T11:10:11;11.40;;;3.73;;
4311;SDS011;2169;49.086;9.284;2023-06-22T11:12:38;6.33;;;3.07;;
4311;SDS011;2169;49.086;9.284;2023-06-22T11:15:07;2.77;;;2.10;;
4311;SDS011;2169;49.086;9.284;2023-06-22T11:17:34;2.63;;;1.93;;
4311;SDS011;2169;49.086;9.284;2023-06-22T11:20:01;2.53;;;2.30;;
4311;SDS011;2169;49.086;9.284;2023-06-22T11:22:34;4.93;;;2.80;;
4311;SDS011;2169;49.086;9.284;2023-06-22T11:25:01;11.80;;;5.10;;
4311;SDS011;2169;49.086;9.284;2023-06-22T11:27:28;2.50;;;2.30;;
4311;SDS011;2169;49.086;9.284;2023-06-22T11:29:55;16.10;;;5.70;;
4311;SDS011;2169;49.086;9.284;2023-06-22T11:32:23;9.23;;;3.00;;
4311;SDS011;2169;49.086;9.284;2023-06-22T11:34:50;5.90;;;3.47;;
4311;SDS011;2169;49.086;9.284;2023-06-22T11:37:17;4.27;;;2.80;;
4311;SDS011;2169;49.086;9.284;2023-06-22T11:39:44;4.43;;;3.07;;
4311;SDS011;2169;49.086;9.284;2023-06-22T11:42:10;5.47;;;2.10;;
4311;SDS011;2169;49.086;9.284;2023-06-22T11:44:37;4.13;;;2.63;;
4311;SDS011;2169;49.086;9.284;2023-06-22T11:47:04;6.07;;;3.00;;
4311;SDS011;2169;49.086;9.284;2023-06-22T11:49:33;4.60;;;3.20;;
4311;SDS011;2169;49.086;9.284;2023-06-22T11:51:59;11.03;;;2.83;;
4311;SDS011;2169;49.086;9.284;2023-06-22T11:54:26;7.67;;;3.10;;
4311;SDS011;2169;49.086;9.284;2023-06-22T11:56:53;4.37;;;2.60;;
4311;SDS011;2169;49.086;9.284;2023-06-22T11:59:20;3.20;;;2.90;;
4311;SDS011;2169;49.086;9.284;2023-06-22T12:01:47;11.20;;;3.10;;
4311;SDS011;2169;49.086;9.284;2023-06-22T12:04:15;3.30;;;2.33;;
4311;SDS011;2169;49.086;9.284;2023-06-22T12:06:44;8.93;;;3.40;;
4311;SDS011;2169;49.086;9.284;2023-06-22T12:09:11;12.50;;;2.83;;
4311;SDS011;2169;49.086;9.284;2023-06-22T12:11:38;7.60;;;3.10;;
4311;SDS011;2169;49.086;9.284;2023-06-22T12:14:05;14.60;;;3.03;;
4311;SDS011;2169;49.086;9.284;2023-06-22T12:16:32;18.90;;;3.50;;
4311;SDS011;2169;49.086;9.284;2023-06-22T12:18:58;24.17;;;5.60;;
4311;SDS011;2169;49.086;9.284;2023-06-22T12:21:25;6.43;;;2.67;;
4311;SDS011;2169;49.086;9.284;2023-06-22T12:23:53;10.13;;;2.80;;
4311;SDS011;2169;49.086;9.284;2023-06-22T12:26:20;9.53;;;3.87;;
4311;SDS011;2169;49.086;9.284;2023-06-22T12:28:47;10.13;;;3.07;;
4311;SDS011;2169;49.086;9.284;2023-06-22T12:31:14;14.90;;;3.77;;
4311;SDS011;2169;49.086;9.284;2023-06-22T12:33:41;3.57;;;3.20;;
4311;SDS011;2169;49.086;9.284;2023-06-22T12:36:08;4.57;;;3.50;;
4311;SDS011;2169;49.086;9.284;2023-06-22T12:38:35;4.60;;;2.30;;
4311;SDS011;2169;49.086;9.284;2023-06-22T12:41:03;5.40;;;2.97;;
4311;SDS011;2169;49.086;9.284;2023-06-22T12:43:30;3.23;;;2.90;;
4311;SDS011;2169;49.086;9.284;2023-06-22T12:45:56;3.87;;;3.13;;
4311;SDS011;2169;49.086;9.284;2023-06-22T12:48:24;4.20;;;2.50;;
4311;SDS011;2169;49.086;9.284;2023-06-22T12:50:51;3.50;;;2.73;;
4311;SDS011;2169;49.086;9.284;2023-06-22T12:53:18;6.07;;;3.43;;
4311;SDS011;2169;49.086;9.284;2023-06-22T12:55:45;5.17;;;3.67;;
4311;SDS011;2169;49.086;9.284;2023-06-22T12:58:13;6.30;;;3.00;;
4311;SDS011;2169;49.086;9.284;2023-06-22T13:00:40;6.83;;;3.23;;
4311;SDS011;2169;49.086;9.284;2023-06-22T13:03:07;2.40;;;2.20;;
4311;SDS011;2169;49.086;9.284;2023-06-22T13:05:33;8.60;;;4.13;;
4311;SDS011;2169;49.086;9.284;2023-06-22T13:08:01;8.33;;;3.77;;
4311;SDS011;2169;49.086;9.284;2023-06-22T13:10:28;3.80;;;2.50;;
4311;SDS011;2169;49.086;9.284;2023-06-22T13:12:54;8.30;;;4.40;;
4311;SDS011;2169;49.086;9.284;2023-06-22T13:15:26;10.00;;;2.87;;
4311;SDS011;2169;49.086;9.284;2023-06-22T13:17:53;12.27;;;2.90;;
4311;SDS011;2169;49.086;9.284;2023-06-22T13:20:21;4.53;;;3.50;;
4311;SDS011;2169;49.086;9.284;2023-06-22T13:22:47;4.50;;;3.40;;
4311;SDS011;2169;49.086;9.284;2023-06-22T13:25:14;5.13;;;2.50;;
4311;SDS011;2169;49.086;9.284;2023-06-22T13:27:44;4.03;;;3.47;;
4311;SDS011;2169;49.086;9.284;2023-06-22T13:30:11;4.47;;;2.73;;
4311;SDS011;2169;49.086;9.284;2023-06-22T13:32:39;8.80;;;3.10;;
4311;SDS011;2169;49.086;9.284;2023-06-22T13:35:07;5.83;;;3.40;;
4311;SDS011;2169;49.086;9.284;2023-06-22T13:37:34;5.83;;;3.20;;
4311;SDS011;2169;49.086;9.284;2023-06-22T13:40:01;3.90;;;3.00;;
4311;SDS011;2169;49.086;9.284;2023-06-22T13:42:30;6.00;;;2.90;;
4311;SDS011;2169;49.086;9.284;2023-06-22T13:44:57;6.17;;;2.30;;
4311;SDS011;2169;49.086;9.284;2023-06-22T13:47:23;7.23;;;3.40;;
4311;SDS011;2169;49.086;9.284;2023-06-22T13:49:52;4.53;;;3.00;;
4311;SDS011;2169;49.086;9.284;2023-06-22T13:52:18;8.03;;;3.93;;
4311;SDS011;2169;49.086;9.284;2023-06-22T13:54:45;4.50;;;3.00;;
4311;SDS011;2169;49.086;9.284;2023-06-22T13:57:12;7.00;;;3.50;;
4311;SDS011;2169;49.086;9.284;2023-06-22T13:59:38;10.53;;;2.50;;
4311;SDS011;2169;49.086;9.284;2023-06-22T14:02:05;4.80;;;2.60;;
4311;SDS011;2169;49.086;9.284;2023-06-22T14:04:32;5.23;;;3.70;;
4311;SDS011;2169;49.086;9.284;2023-06-22T14:07:00;5.90;;;3.70;;
4311;SDS011;2169;49.086;9.284;2023-06-22T14:09:27;4.90;;;2.90;;
4311;SDS011;2169;49.086;9.284;2023-06-22T14:11:54;4.10;;;3.40;;
4311;SDS011;2169;49.086;9.284;2023-06-22T14:14:21;3.57;;;2.43;;
4311;SDS011;2169;49.086;9.284;2023-06-22T14:16:48;3.60;;;3.27;;
4311;SDS011;2169;49.086;9.284;2023-06-22T14:19:16;3.50;;;2.87;;
4311;SDS011;2169;49.086;9.284;2023-06-22T14:21:43;3.43;;;2.37;;
4311;SDS011;2169;49.086;9.284;2023-06-22T14:24:11;9.50;;;3.00;;
4311;SDS011;2169;49.086;9.284;2023-06-22T14:26:38;4.20;;;2.83;;
4311;SDS011;2169;49.086;9.284;2023-06-22T14:29:04;9.27;;;3.27;;
4311;SDS011;2169;49.086;9.284;2023-06-22T14:31:31;20.00;;;4.10;;
4311;SDS011;2169;49.086;9.284;2023-06-22T14:33:58;5.37;;;2.57;;
4311;SDS011;2169;49.086;9.284;2023-06-22T14:36:25;10.80;;;3.63;;
4311;SDS011;2169;49.086;9.284;2023-06-22T14:38:52;11.80;;;3.17;;
4311;SDS011;2169;49.086;9.284;2023-06-22T14:41:20;8.20;;;4.30;;
4311;SDS011;2169;49.086;9.284;2023-06-22T14:43:47;8.17;;;4.27;;
4311;SDS011;2169;49.086;9.284;2023-06-22T14:46:15;5.40;;;3.10;;
4311;SDS011;2169;49.086;9.284;2023-06-22T14:48:44;8.20;;;4.13;;
4311;SDS011;2169;49.086;9.284;2023-06-22T14:51:11;9.17;;;3.93;;
4311;SDS011;2169;49.086;9.284;2023-06-22T14:53:38;5.70;;;3.27;;
4311;SDS011;2169;49.086;9.284;2023-06-22T14:56:05;4.50;;;2.30;;
4311;SDS011;2169;49.086;9.284;2023-06-22T14:58:33;5.60;;;2.40;;
4311;SDS011;2169;49.086;9.284;2023-06-22T15:01:00;5.90;;;3.07;;
4311;SDS011;2169;49.086;9.284;2023-06-22T15:03:27;10.33;;;3.27;;
4311;SDS011;2169;49.086;9.284;2023-06-22T15:05:55;14.03;;;2.83;;
4311;SDS011;2169;49.086;9.284;2023-06-22T15:08:23;5.33;;;2.83;;
4311;SDS011;2169;49.086;9.284;2023-06-22T15:10:50;7.30;;;4.10;;
4311;SDS011;2169;49.086;9.284;2023-06-22T15:13:17;13.70;;;4.10;;
4311;SDS011;2169;49.086;9.284;2023-06-22T15:15:45;10.63;;;3.07;;